Time;durP1;ratioP1;P1;durP2;ratioP2;P2;SDS_P1;SDS_P2;PMS_P1;PMS_P2;Temp;Humidity;BMP_temperature;BMP_pressure;BME280_temperature;BME280_humidity;BME280_pressure;Samples;Min_cycle;Max_cycle;Signal;HPM_P1;HPM_P2
2022/11/09 00:01:37;;;;;;;;;2.00;2.00;;;;;21.07;60.19;100631.80;105765;1278;20006;-64
2022/11/09 00:04:05;;;;;;;;;2.00;2.00;;;;;21.07;60.09;100627.20;105732;1294;21466;-63
2022/11/09 00:06:32;;;;;;;;;2.00;2.00;;;;;21.07;60.11;100623.80;105718;1272;21591;-63
2022/11/09 00:08:59;;;;;;;;;2.00;2.00;;;;;21.08;59.87;100621.29;105762;1279;20044;-63
2022/11/09 00:11:27;;;;;;;;;2.00;2.00;;;;;21.07;60.08;100627.36;105668;1279;22083;-63
2022/11/09 00:13:54;;;;;;;;;1.00;1.00;;;;;21.06;59.99;100623.32;105694;1287;18427;-63
2022/11/09 00:16:21;;;;;;;;;2.00;2.00;;;;;21.07;59.96;100622.67;105386;1279;343547;-63
2022/11/09 00:18:50;;;;;;;;;2.00;1.00;;;;;21.06;59.90;100625.67;105581;1294;20760;-63
2022/11/09 00:21:17;;;;;;;;;2.00;1.00;;;;;21.06;59.87;100626.27;105746;1294;19643;-63
2022/11/09 00:23:45;;;;;;;;;2.00;2.00;;;;;21.06;59.92;100631.46;105761;1282;18443;-63
2022/11/09 00:26:12;;;;;;;;;4.00;3.00;;;;;21.07;60.07;100640.48;105718;1294;22702;-64
2022/11/09 00:28:39;;;;;;;;;2.00;2.00;;;;;21.06;60.08;100638.04;105726;1294;18509;-64
2022/11/09 00:31:07;;;;;;;;;2.00;2.00;;;;;21.06;59.94;100640.64;105791;1272;21663;-64
2022/11/09 00:33:34;;;;;;;;;4.00;2.00;;;;;21.06;59.98;100639.30;105728;1278;20885;-63
2022/11/09 00:36:01;;;;;;;;;1.50;1.50;;;;;21.06;59.77;100636.95;105692;1287;22636;-63
2022/11/09 00:38:29;;;;;;;;;;;;;;;21.05;59.87;100637.83;105758;1287;20074;-63
2022/11/09 00:40:56;;;;;;;;;2.00;2.00;;;;;21.05;60.06;100635.96;105705;1278;22759;-63
2022/11/09 00:43:23;;;;;;;;;2.00;2.00;;;;;21.04;59.77;100636.23;105722;1297;18851;-64
2022/11/09 00:45:51;;;;;;;;;2.00;2.00;;;;;21.04;59.89;100641.86;105729;1279;23038;-63
2022/11/09 00:48:18;;;;;;;;;1.00;1.00;;;;;21.05;60.00;100639.67;105698;1297;19272;-62
2022/11/09 00:50:45;;;;;;;;;1.00;1.00;;;;;21.03;59.98;100636.20;105689;1294;18759;-63
2022/11/09 00:53:12;;;;;;;;;;;;;;;21.04;60.04;100636.88;105710;1294;18520;-63
2022/11/09 00:55:40;;;;;;;;;1.00;1.00;;;;;21.04;59.91;100632.28;105707;1295;19304;-61
2022/11/09 00:58:07;;;;;;;;;2.00;2.00;;;;;21.04;60.04;100632.98;105746;1294;20098;-64
2022/11/09 01:00:34;;;;;;;;;2.00;2.00;;;;;21.05;60.10;100634.67;105661;1279;20012;-63
2022/11/09 01:03:02;;;;;;;;;1.00;1.00;;;;;21.05;59.66;100633.11;105722;1287;20790;-63
2022/11/09 01:05:29;;;;;;;;;4.00;2.00;;;;;21.05;59.91;100633.80;105700;1288;19577;-61
2022/11/09 01:07:56;;;;;;;;;2.00;2.00;;;;;21.04;59.86;100634.88;105678;1288;20033;-61
2022/11/09 01:10:24;;;;;;;;;4.00;2.00;;;;;21.04;59.96;100635.59;105747;1297;19140;-63
2022/11/09 01:12:51;;;;;;;;;1.00;1.00;;;;;21.04;60.00;100629.93;105709;1297;22761;-64
2022/11/09 01:15:18;;;;;;;;;4.00;2.00;;;;;21.04;59.85;100622.30;105649;1271;21946;-63
2022/11/09 01:17:46;;;;;;;;;1.00;1.00;;;;;21.04;59.72;100628.50;105674;1279;24077;-65
2022/11/09 01:20:13;;;;;;;;;2.00;2.00;;;;;21.04;59.76;100627.02;105562;1294;20139;-63
2022/11/09 01:22:41;;;;;;;;;2.00;2.00;;;;;21.04;59.91;100629.73;105553;1272;22722;-63
2022/11/09 01:25:08;;;;;;;;;2.00;2.00;;;;;21.03;59.82;100627.83;105783;1294;20801;-62
2022/11/09 01:27:35;;;;;;;;;1.50;1.50;;;;;21.04;59.71;100624.31;105722;1294;19585;-62
2022/11/09 01:30:03;;;;;;;;;2.00;2.00;;;;;21.03;59.87;100625.89;105749;1297;18525;-62
2022/11/09 01:32:30;;;;;;;;;2.00;2.00;;;;;21.02;60.02;100624.13;105709;1281;20732;-63
2022/11/09 01:34:57;;;;;;;;;2.00;2.00;;;;;21.01;59.83;100624.48;105737;1288;19819;-63
2022/11/09 01:37:25;;;;;;;;;2.00;2.00;;;;;21.02;60.06;100620.34;105755;1281;19908;-63
2022/11/09 01:39:52;;;;;;;;;1.00;1.00;;;;;21.02;59.87;100621.69;105720;1279;19925;-63
2022/11/09 01:42:19;;;;;;;;;2.00;2.00;;;;;21.01;59.79;100623.52;105756;1278;19640;-63
2022/11/09 01:44:47;;;;;;;;;2.00;2.00;;;;;21.00;59.91;100622.92;105773;1279;29798;-62
2022/11/09 01:47:14;;;;;;;;;2.00;2.00;;;;;21.00;59.92;100619.70;105693;1289;19264;-62
2022/11/09 01:49:42;;;;;;;;;2.00;2.00;;;;;20.99;59.94;100615.45;105706;1288;22317;-62
2022/11/09 01:52:09;;;;;;;;;2.00;2.00;;;;;21.00;59.99;100613.39;105726;1287;20072;-62
2022/11/09 01:54:36;;;;;;;;;2.00;2.00;;;;;21.00;59.74;100612.65;105704;1278;19307;-64
2022/11/09 01:57:04;;;;;;;;;2.00;2.00;;;;;21.00;59.79;100612.82;105715;1300;18497;-64
2022/11/09 01:59:31;;;;;;;;;1.00;1.00;;;;;20.99;59.82;100607.98;105705;1289;22525;-64
2022/11/09 02:01:58;;;;;;;;;4.00;2.00;;;;;20.99;59.95;100607.68;105755;1279;19285;-64
2022/11/09 02:04:26;;;;;;;;;2.00;2.00;;;;;20.99;59.82;100607.60;105796;1272;22298;-63
2022/11/09 02:06:53;;;;;;;;;2.00;2.00;;;;;20.99;59.94;100604.44;105724;1294;18533;-65
2022/11/09 02:09:20;;;;;;;;;2.00;2.00;;;;;20.98;59.79;100604.25;105721;1288;19268;-61
2022/11/09 02:11:48;;;;;;;;;4.00;2.00;;;;;20.98;59.93;100601.17;105709;1279;18475;-63
2022/11/09 02:14:15;;;;;;;;;2.00;2.00;;;;;20.98;59.90;100604.30;105782;1294;19769;-63
2022/11/09 02:16:42;;;;;;;;;2.00;2.00;;;;;20.98;59.91;100603.17;105730;1285;19271;-63
2022/11/09 02:19:10;;;;;;;;;2.00;2.00;;;;;20.99;59.80;100604.20;105763;1279;19586;-63
2022/11/09 02:21:37;;;;;;;;;2.00;2.00;;;;;20.99;59.84;100601.98;105779;1288;21294;-63
2022/11/09 02:24:04;;;;;;;;;3.00;3.00;;;;;20.98;59.75;100599.19;105745;1272;19130;-64
2022/11/09 02:26:31;;;;;;;;;2.00;2.00;;;;;20.99;59.77;100594.41;105774;1279;22716;-63
2022/11/09 02:28:59;;;;;;;;;4.50;4.00;;;;;20.98;59.88;100590.75;105747;1294;20017;-63
2022/11/09 02:31:26;;;;;;;;;1.50;1.50;;;;;20.99;59.82;100588.96;105751;1297;22939;-64
2022/11/09 02:33:54;;;;;;;;;2.00;2.00;;;;;20.98;59.78;100582.20;105718;1294;19693;-64
2022/11/09 02:36:21;;;;;;;;;2.00;2.00;;;;;20.96;59.85;100584.16;105713;1294;18542;-60
2022/11/09 02:38:48;;;;;;;;;2.00;2.00;;;;;20.96;59.84;100579.49;105734;1289;19355;-64
2022/11/09 02:41:16;;;;;;;;;2.00;2.00;;;;;20.96;59.74;100583.48;105733;1294;19610;-64
2022/11/09 02:43:43;;;;;;;;;2.00;2.00;;;;;20.95;59.71;100582.30;105781;1279;18544;-62
2022/11/09 02:46:10;;;;;;;;;2.00;2.00;;;;;20.96;59.70;100577.06;105716;1279;20798;-62
2022/11/09 02:48:38;;;;;;;;;2.00;2.00;;;;;20.97;59.66;100581.42;105725;1288;18222;-62
2022/11/09 02:51:05;;;;;;;;;2.00;2.00;;;;;20.97;59.66;100588.67;105745;1286;24127;-63
2022/11/09 02:53:32;;;;;;;;;2.00;2.00;;;;;20.96;59.73;100587.46;105776;1294;20806;-63
2022/11/09 02:56:01;;;;;;;;;2.00;2.00;;;;;20.96;59.88;100591.48;105710;1297;22343;-64
2022/11/09 02:58:28;;;;;;;;;2.00;2.00;;;;;20.96;59.78;100587.73;105762;1287;18637;-63
2022/11/09 03:00:55;;;;;;;;;1.50;1.50;;;;;20.95;59.63;100581.38;105707;1279;24024;-63
2022/11/09 03:03:23;;;;;;;;;2.00;2.00;;;;;20.94;59.88;100582.65;105720;1279;18508;-62
2022/11/09 03:05:50;;;;;;;;;1.50;1.50;;;;;20.94;59.63;100585.34;105749;1271;19003;-62
2022/11/09 03:08:17;;;;;;;;;4.00;4.00;;;;;20.95;59.59;100580.52;105738;1279;20775;-63
2022/11/09 03:10:45;;;;;;;;;;;;;;;20.95;59.51;100592.34;105739;1278;24128;-62
2022/11/09 03:13:12;;;;;;;;;4.00;4.00;;;;;20.93;59.71;100597.25;105774;1288;19626;-64
2022/11/09 03:15:39;;;;;;;;;2.00;2.00;;;;;20.94;59.62;100599.13;105762;1279;19367;-64
2022/11/09 03:18:07;;;;;;;;;1.00;1.00;;;;;20.95;59.56;100594.40;105736;1271;18312;-64
2022/11/09 03:20:34;;;;;;;;;2.00;2.00;;;;;20.94;59.59;100592.46;105736;1294;18579;-64
2022/11/09 03:23:01;;;;;;;;;2.00;2.00;;;;;20.94;59.62;100591.12;105782;1279;19322;-63
2022/11/09 03:25:29;;;;;;;;;4.00;2.00;;;;;20.94;59.44;100582.11;105762;1294;18704;-64
2022/11/09 03:27:56;;;;;;;;;4.00;4.00;;;;;20.94;59.53;100582.98;105657;1294;18800;-64
2022/11/09 03:30:23;;;;;;;;;1.50;1.50;;;;;20.94;59.71;100574.48;105726;1279;19318;-65
2022/11/09 03:32:50;;;;;;;;;2.00;2.00;;;;;20.93;59.45;100566.61;105706;1279;20440;-65
2022/11/09 03:35:18;;;;;;;;;2.00;2.00;;;;;20.93;59.50;100567.30;105685;1279;19926;-63
2022/11/09 03:37:45;;;;;;;;;2.00;2.00;;;;;20.93;59.55;100570.94;105735;1295;20688;-63
2022/11/09 03:40:12;;;;;;;;;2.00;2.00;;;;;20.92;59.80;100564.87;105771;1294;19965;-64
2022/11/09 03:42:40;;;;;;;;;2.00;2.00;;;;;20.93;59.54;100571.54;105738;1279;20021;-63
2022/11/09 03:45:07;;;;;;;;;1.50;1.50;;;;;20.93;59.58;100578.06;105714;1294;23019;-63
2022/11/09 03:47:34;;;;;;;;;2.00;2.00;;;;;20.93;59.34;100589.16;105715;1295;18424;-63
2022/11/09 03:50:02;;;;;;;;;2.00;2.00;;;;;20.93;59.51;100580.02;105694;1288;22489;-63
2022/11/09 03:52:29;;;;;;;;;2.00;2.00;;;;;20.92;59.55;100583.27;105779;1297;19266;-64
2022/11/09 03:54:56;;;;;;;;;2.00;2.00;;;;;20.91;59.64;100582.21;105766;1285;19660;-64
2022/11/09 03:57:23;;;;;;;;;4.00;4.00;;;;;20.92;59.50;100572.50;105697;1272;18545;-64
2022/11/09 03:59:51;;;;;;;;;4.00;2.00;;;;;20.93;59.45;100566.81;105725;1272;22403;-63
2022/11/09 04:02:18;;;;;;;;;2.00;2.00;;;;;20.92;59.51;100571.04;105772;1272;18239;-63
2022/11/09 04:04:46;;;;;;;;;2.00;2.00;;;;;20.93;59.38;100568.97;105716;1294;22281;-63
2022/11/09 04:07:13;;;;;;;;;2.00;2.00;;;;;20.92;59.37;100575.19;105753;1271;19257;-63
2022/11/09 04:09:40;;;;;;;;;2.00;2.00;;;;;20.92;59.49;100574.85;105763;1279;23320;-63
2022/11/09 04:12:08;;;;;;;;;2.00;2.00;;;;;20.93;59.44;100577.36;105676;1279;18752;-63
2022/11/09 04:14:35;;;;;;;;;2.00;2.00;;;;;20.92;59.33;100568.55;105732;1279;23574;-63
2022/11/09 04:17:02;;;;;;;;;2.00;2.00;;;;;20.92;59.20;100566.89;105733;1281;18312;-63
2022/11/09 04:19:30;;;;;;;;;2.00;2.00;;;;;20.91;59.38;100566.07;105785;1297;18502;-62
2022/11/09 04:21:57;;;;;;;;;2.00;2.00;;;;;20.91;59.44;100566.78;105727;1294;19287;-63
2022/11/09 04:24:24;;;;;;;;;2.00;2.00;;;;;20.91;59.39;100566.08;105712;1294;18372;-62
2022/11/09 04:26:51;;;;;;;;;2.00;2.00;;;;;20.90;59.25;100565.51;105729;1279;18508;-63
2022/11/09 04:29:19;;;;;;;;;2.00;2.00;;;;;20.90;59.26;100569.83;105704;1298;19325;-63
2022/11/09 04:31:46;;;;;;;;;2.00;2.00;;;;;20.90;59.47;100570.17;105746;1294;18369;-63
2022/11/09 04:34:13;;;;;;;;;2.00;2.00;;;;;20.90;59.28;100577.66;105730;1294;22289;-64
2022/11/09 04:36:41;;;;;;;;;2.67;2.67;;;;;20.89;59.43;100579.59;105737;1294;19369;-63
2022/11/09 04:39:08;;;;;;;;;2.00;2.00;;;;;20.90;59.31;100578.92;105741;1288;19637;-63
2022/11/09 04:41:36;;;;;;;;;2.00;2.00;;;;;20.90;59.47;100576.98;105751;1271;19972;-64
2022/11/09 04:44:03;;;;;;;;;2.00;2.00;;;;;20.90;59.31;100574.94;105688;1297;19268;-63
2022/11/09 04:46:30;;;;;;;;;2.00;2.00;;;;;20.90;59.46;100572.55;105732;1278;19576;-64
2022/11/09 04:48:57;;;;;;;;;2.00;2.00;;;;;20.90;59.37;100568.77;105735;1275;18514;-63
2022/11/09 04:51:25;;;;;;;;;2.00;2.00;;;;;20.90;59.21;100563.54;105744;1288;20692;-63
2022/11/09 04:53:53;;;;;;;;;2.00;2.00;;;;;20.90;59.16;100561.94;105708;1294;18331;-63
2022/11/09 04:56:21;;;;;;;;;2.00;2.00;;;;;20.90;59.27;100559.48;105709;1297;21508;-63
2022/11/09 04:58:48;;;;;;;;;2.00;2.00;;;;;20.90;59.26;100561.16;105731;1295;20862;-63
2022/11/09 05:01:16;;;;;;;;;2.00;2.00;;;;;20.90;59.14;100561.48;105804;1294;19588;-63
2022/11/09 05:03:43;;;;;;;;;2.00;2.00;;;;;20.89;59.17;100557.29;105735;1279;18558;-62
2022/11/09 05:08:55;;;;;;;;;4.00;2.00;;;;;20.89;59.38;100553.27;105729;1285;22919;-64
2022/11/09 05:11:23;;;;;;;;;2.00;2.00;;;;;20.88;59.22;100546.88;105739;1295;20043;-64
2022/11/09 05:13:50;;;;;;;;;3.00;2.00;;;;;20.89;59.15;100544.08;105737;1294;19245;-64
2022/11/09 05:16:18;;;;;;;;;1.00;1.00;;;;;20.89;59.01;100547.14;105797;1301;20487;-63
2022/11/09 05:18:45;;;;;;;;;4.50;2.00;;;;;20.89;59.33;100557.29;105729;1286;20143;-64
2022/11/09 05:21:13;;;;;;;;;1.67;1.67;;;;;20.89;59.26;100563.83;105753;1279;19317;-63
2022/11/09 05:23:58;;;;;;;;;3.00;3.00;;;;;20.88;59.36;100557.02;105708;1286;18939;-63
2022/11/09 05:26:25;;;;;;;;;2.00;2.00;;;;;20.88;59.17;100554.46;105692;1278;18631;-63
2022/11/09 05:28:53;;;;;;;;;1.00;1.00;;;;;20.88;59.16;100554.53;105710;1298;19280;-62
2022/11/09 05:31:21;;;;;;;;;5.00;2.00;;;;;20.88;59.19;100559.06;105725;1297;19642;-64
2022/11/09 05:33:48;;;;;;;;;1.00;1.00;;;;;20.89;59.23;100559.70;105743;1294;20049;-63
2022/11/09 05:36:15;;;;;;;;;4.00;4.00;;;;;20.89;59.12;100556.06;105721;1292;20726;-63
2022/11/09 05:38:43;;;;;;;;;5.00;2.00;;;;;20.89;59.08;100557.16;105696;1278;19550;-64
2022/11/09 05:41:10;;;;;;;;;1.50;1.00;;;;;20.88;59.20;100563.90;105746;1273;18540;-64
2022/11/09 05:43:37;;;;;;;;;2.00;2.00;;;;;20.89;59.17;100568.76;105728;1287;20820;-63
2022/11/09 05:46:04;;;;;;;;;2.00;2.00;;;;;20.88;59.23;100555.21;105738;1294;22930;-62
2022/11/09 05:48:32;;;;;;;;;1.00;1.00;;;;;20.88;59.07;100542.89;105742;1286;18549;-63
2022/11/09 05:50:59;;;;;;;;;2.00;2.00;;;;;20.88;59.21;100557.77;105707;1294;22660;-63
2022/11/09 05:53:26;;;;;;;;;2.00;2.00;;;;;20.88;58.99;100566.73;105678;1272;18426;-61
2022/11/09 05:55:54;;;;;;;;;;;;;;;20.88;59.17;100564.91;105701;1300;23383;-63
2022/11/09 05:58:21;;;;;;;;;4.00;4.00;;;;;20.88;59.14;100565.36;105774;1294;19687;-63
2022/11/09 06:00:48;;;;;;;;;2.00;2.00;;;;;20.90;59.14;100568.81;105719;1302;18368;-63
2022/11/09 06:03:16;;;;;;;;;2.00;2.00;;;;;20.93;59.38;100574.98;105690;1294;18674;-63
2022/11/09 06:05:43;;;;;;;;;2.00;2.00;;;;;20.94;59.51;100564.33;105646;1271;19181;-64
2022/11/09 06:08:11;;;;;;;;;3.00;3.00;;;;;20.96;59.53;100566.80;105748;1272;19635;-65
2022/11/09 06:10:39;;;;;;;;;4.00;2.00;;;;;20.96;59.75;100569.52;105725;1294;18496;-64
2022/11/09 06:13:06;;;;;;;;;11.50;10.00;;;;;20.97;59.76;100569.33;105734;1297;20909;-62
2022/11/09 06:15:33;;;;;;;;;35.00;34.00;;;;;20.99;60.16;100562.53;105678;1279;20598;-62
2022/11/09 06:18:01;;;;;;;;;109.00;95.00;;;;;21.02;60.21;100560.61;105702;1288;18619;-63
2022/11/09 06:20:28;;;;;;;;;102.00;81.00;;;;;21.02;60.43;100555.54;105718;1288;21335;-64
2022/11/09 06:22:55;;;;;;;;;85.50;69.50;;;;;21.04;60.66;100564.36;105678;1280;20598;-63
2022/11/09 06:25:23;;;;;;;;;;;;;;;21.04;60.72;100565.42;105742;1294;22728;-64
2022/11/09 06:27:50;;;;;;;;;;;;;;;21.05;60.57;100566.65;105676;1272;20822;-64
2022/11/09 06:30:17;;;;;;;;;65.00;55.00;;;;;21.03;60.70;100570.23;105703;1294;17994;-63
2022/11/09 06:32:45;;;;;;;;;56.00;48.50;;;;;21.02;60.64;100574.06;105678;1294;18530;-63
2022/11/09 06:35:12;;;;;;;;;49.00;43.00;;;;;21.00;60.61;100573.20;105706;1279;20773;-64
2022/11/09 06:37:39;;;;;;;;;43.00;42.00;;;;;20.99;60.56;100574.23;105733;1294;18541;-63
2022/11/09 06:40:07;;;;;;;;;37.00;32.00;;;;;20.97;60.61;100572.23;105744;1294;26718;-63
2022/11/09 06:42:34;;;;;;;;;31.50;31.00;;;;;20.97;60.68;100578.66;105669;1279;20796;-63
2022/11/09 06:45:01;;;;;;;;;29.00;28.00;;;;;20.97;60.40;100574.10;105675;1291;20151;-64
2022/11/09 06:47:28;;;;;;;;;26.00;23.00;;;;;20.97;60.64;100576.69;105625;1279;20166;-63
2022/11/09 06:49:56;;;;;;;;;20.33;19.00;;;;;20.94;60.58;100571.88;105618;1279;22027;-63
2022/11/09 06:52:24;;;;;;;;;22.00;21.00;;;;;20.95;60.39;100569.42;105676;1272;19967;-63
2022/11/09 06:54:52;;;;;;;;;;;;;;;20.96;60.31;100573.16;105525;1294;18629;-63
2022/11/09 06:57:19;;;;;;;;;;;;;;;20.95;60.32;100568.70;105539;1287;21987;-63
2022/11/09 06:59:46;;;;;;;;;21.00;16.00;;;;;20.95;60.36;100568.55;105720;1286;18271;-63
2022/11/09 07:02:14;;;;;;;;;12.00;12.00;;;;;20.96;60.18;100565.87;105694;1288;18598;-63
2022/11/09 07:04:41;;;;;;;;;18.00;13.00;;;;;20.94;60.40;100562.45;105710;1279;19289;-63
2022/11/09 07:07:08;;;;;;;;;13.00;11.00;;;;;20.95;60.29;100559.98;105699;1294;18512;-63
2022/11/09 07:09:36;;;;;;;;;14.00;11.00;;;;;20.95;60.26;100564.01;105687;1279;18584;-63
2022/11/09 07:12:03;;;;;;;;;15.00;12.00;;;;;20.96;60.22;100566.25;105671;1279;20787;-63
2022/11/09 07:14:31;;;;;;;;;12.00;11.00;;;;;20.96;59.99;100565.11;105662;1288;20084;-63
2022/11/09 07:16:58;;;;;;;;;12.00;12.00;;;;;20.96;59.93;100561.18;105719;1295;23042;-63
2022/11/09 07:19:25;;;;;;;;;12.00;12.00;;;;;20.96;59.93;100566.72;105720;1272;20735;-64
2022/11/09 07:21:53;;;;;;;;;12.00;11.00;;;;;20.96;60.09;100566.79;105688;1288;20019;-63
2022/11/09 07:24:20;;;;;;;;;12.00;10.00;;;;;20.97;59.92;100567.73;105637;1271;20074;-63
2022/11/09 07:26:47;;;;;;;;;9.00;8.00;;;;;20.97;59.76;100569.70;105515;1288;19490;-63
2022/11/09 07:29:14;;;;;;;;;9.00;9.00;;;;;20.99;59.91;100566.80;105559;1285;22162;-64
2022/11/09 07:31:42;;;;;;;;;8.00;8.00;;;;;21.00;59.81;100572.62;105557;1288;20020;-63
2022/11/09 07:34:09;;;;;;;;;;;;;;;21.01;59.73;100570.12;105575;1279;20809;-64
2022/11/09 07:36:36;;;;;;;;;;;;;;;21.02;59.67;100577.42;105621;1279;19601;-64
2022/11/09 07:39:04;;;;;;;;;8.50;8.50;;;;;21.01;59.87;100581.05;105602;1285;19886;-63
2022/11/09 07:41:31;;;;;;;;;7.00;7.00;;;;;21.01;60.18;100583.77;105556;1294;20878;-62
2022/11/09 07:43:58;;;;;;;;;7.00;7.00;;;;;21.07;60.02;100578.59;105569;1297;22652;-64
2022/11/09 07:46:26;;;;;;;;;8.00;7.00;;;;;21.12;59.99;100581.23;105544;1279;23707;-64
2022/11/09 07:48:53;;;;;;;;;10.00;9.00;;;;;21.17;59.68;100577.38;105622;1281;20797;-65
2022/11/09 07:51:20;;;;;;;;;11.00;8.00;;;;;21.21;59.48;100580.86;105531;1294;23937;-65
2022/11/09 07:53:48;;;;;;;;;8.50;7.50;;;;;21.24;59.00;100586.11;105572;1272;19103;-64
2022/11/09 07:56:15;;;;;;;;;9.00;9.00;;;;;21.24;58.99;100586.11;105545;1278;21007;-63
2022/11/09 07:58:42;;;;;;;;;8.50;8.50;;;;;21.26;59.04;100583.20;105473;1297;22241;-63
2022/11/09 08:01:10;;;;;;;;;8.00;8.00;;;;;21.25;59.25;100576.15;105603;1279;20064;-65
2022/11/09 08:03:37;;;;;;;;;;;;;;;21.26;59.45;100576.79;105510;1278;19386;-62
2022/11/09 08:06:04;;;;;;;;;8.00;8.00;;;;;21.30;59.94;100574.49;105555;1279;19606;-61
2022/11/09 08:08:32;;;;;;;;;6.00;5.00;;;;;21.33;60.00;100580.91;105585;1294;18526;-63
2022/11/09 08:10:59;;;;;;;;;6.00;6.00;;;;;21.34;59.95;100586.74;105499;1278;19301;-62
2022/11/09 08:13:26;;;;;;;;;8.00;8.00;;;;;21.33;59.83;100594.30;105599;1286;23975;-63
2022/11/09 08:15:54;;;;;;;;;;;;;;;21.35;59.75;100592.11;105501;1272;20251;-63
2022/11/09 08:18:21;;;;;;;;;6.00;6.00;;;;;21.36;59.61;100596.40;105514;1294;19303;-63
2022/11/09 08:20:48;;;;;;;;;6.50;6.50;;;;;21.35;59.62;100595.52;105477;1294;18539;-63
2022/11/09 08:23:16;;;;;;;;;10.00;8.50;;;;;21.35;59.46;100591.70;105407;1279;21702;-62
2022/11/09 08:25:43;;;;;;;;;5.50;5.50;;;;;21.31;59.53;100585.33;105633;1299;19317;-65
2022/11/09 08:28:10;;;;;;;;;6.00;6.00;;;;;21.28;59.70;100568.21;105670;1282;18553;-62
2022/11/09 08:30:38;;;;;;;;;3.50;3.00;;;;;21.27;59.78;100575.73;105652;1295;18518;-63
2022/11/09 08:33:05;;;;;;;;;;;;;;;21.27;59.92;100577.67;105672;1295;19187;-64
2022/11/09 08:35:32;;;;;;;;;5.00;5.00;;;;;21.25;60.02;100576.73;105750;1278;18573;-65
2022/11/09 08:37:59;;;;;;;;;4.00;4.00;;;;;21.24;60.05;100582.50;105671;1292;18596;-65
2022/11/09 08:40:27;;;;;;;;;2.00;2.00;;;;;21.23;60.17;100576.83;105698;1281;20969;-62
2022/11/09 08:42:54;;;;;;;;;4.00;4.00;;;;;21.22;60.12;100580.81;105701;1279;18533;-62
2022/11/09 08:45:21;;;;;;;;;5.00;5.00;;;;;21.23;60.04;100574.10;105681;1272;20058;-61
2022/11/09 08:47:49;;;;;;;;;4.00;4.00;;;;;21.23;60.04;100578.46;105631;1279;19288;-63
2022/11/09 08:50:16;;;;;;;;;4.00;4.00;;;;;21.24;59.96;100576.05;105616;1295;22888;-65
2022/11/09 08:52:43;;;;;;;;;4.00;4.00;;;;;21.20;59.70;100575.72;105667;1291;20122;-63
2022/11/09 08:55:11;;;;;;;;;4.00;3.00;;;;;21.19;59.90;100580.91;105664;1281;20788;-65
2022/11/09 08:57:38;;;;;;;;;4.00;4.00;;;;;21.19;59.92;100576.08;105540;1272;18362;-63
2022/11/09 09:00:05;;;;;;;;;4.00;4.00;;;;;21.18;59.90;100574.36;105567;1288;18494;-62
2022/11/09 09:02:33;;;;;;;;;5.00;3.00;;;;;21.18;59.95;100572.92;105583;1279;20772;-62
2022/11/09 09:05:00;;;;;;;;;2.00;2.00;;;;;21.16;60.00;100568.94;105579;1279;19968;-63
2022/11/09 09:07:27;;;;;;;;;4.00;4.00;;;;;21.15;60.02;100568.54;105590;1279;18733;-63
2022/11/09 09:09:55;;;;;;;;;5.00;4.00;;;;;21.14;60.08;100574.23;105609;1272;19350;-63
2022/11/09 09:12:22;;;;;;;;;4.00;4.00;;;;;21.14;60.06;100577.95;105619;1279;19608;-63
2022/11/09 09:14:49;;;;;;;;;5.00;4.00;;;;;21.13;60.02;100579.17;105657;1294;20034;-63
2022/11/09 09:17:17;;;;;;;;;4.00;4.00;;;;;21.13;60.01;100585.71;105586;1279;20752;-64
2022/11/09 09:19:44;;;;;;;;;4.00;4.00;;;;;21.13;59.91;100583.28;105666;1279;18401;-63
2022/11/09 09:22:11;;;;;;;;;2.00;2.00;;;;;21.13;60.07;100582.98;105610;1279;23326;-64
2022/11/09 09:24:39;;;;;;;;;4.00;2.00;;;;;21.13;59.88;100578.41;105619;1294;20822;-63
2022/11/09 09:27:06;;;;;;;;;4.00;4.00;;;;;21.11;59.83;100580.23;105583;1287;18411;-64
2022/11/09 09:29:33;;;;;;;;;2.00;2.00;;;;;21.12;60.03;100585.64;105620;1279;18560;-63
2022/11/09 09:32:00;;;;;;;;;4.00;4.00;;;;;21.12;60.02;100596.36;105594;1287;21964;-64
2022/11/09 09:34:28;;;;;;;;;2.00;2.00;;;;;21.11;60.05;100601.14;105680;1297;18486;-63
2022/11/09 09:36:55;;;;;;;;;2.00;2.00;;;;;21.11;60.02;100593.17;105634;1289;18629;-62
2022/11/09 09:39:23;;;;;;;;;2.00;2.00;;;;;21.10;59.90;100590.34;105570;1279;19308;-64
2022/11/09 09:41:50;;;;;;;;;;;;;;;21.09;59.89;100587.35;105664;1300;18365;-63
2022/11/09 09:44:18;;;;;;;;;4.00;4.00;;;;;21.10;59.93;100586.95;105637;1287;21641;-63
2022/11/09 09:46:45;;;;;;;;;4.00;2.00;;;;;21.14;59.84;100594.30;105703;1300;19198;-64
2022/11/09 09:49:12;;;;;;;;;4.00;4.00;;;;;21.14;59.67;100594.95;105586;1285;21750;-62
2022/11/09 09:51:40;;;;;;;;;5.00;5.00;;;;;21.15;59.43;100591.27;105666;1271;22937;-63
2022/11/09 09:54:07;;;;;;;;;4.00;4.00;;;;;21.17;59.29;100583.79;105619;1285;19431;-63
2022/11/09 09:56:35;;;;;;;;;5.00;5.00;;;;;21.19;59.42;100587.73;105624;1279;19624;-63
2022/11/09 09:59:02;;;;;;;;;8.00;6.00;;;;;21.21;59.58;100590.38;105543;1279;18509;-64
2022/11/09 10:01:29;;;;;;;;;5.00;4.00;;;;;21.24;59.36;100596.84;105641;1287;22301;-63
2022/11/09 10:03:57;;;;;;;;;6.50;6.00;;;;;21.27;59.42;100596.02;105603;1278;19642;-63
2022/11/09 10:06:24;;;;;;;;;4.00;4.00;;;;;21.26;59.37;100600.02;105615;1271;18543;-64
2022/11/09 10:08:51;;;;;;;;;6.00;5.00;;;;;21.25;59.53;100596.94;105527;1294;22780;-65
2022/11/09 10:11:19;;;;;;;;;5.00;5.00;;;;;21.26;59.39;100599.48;105594;1279;19649;-63
2022/11/09 10:13:46;;;;;;;;;5.00;5.00;;;;;21.27;59.53;100599.60;105662;1281;18396;-63
2022/11/09 10:16:14;;;;;;;;;4.00;4.00;;;;;21.31;59.55;100599.92;105565;1279;19371;-61
2022/11/09 10:18:41;;;;;;;;;6.00;5.00;;;;;21.32;59.31;100597.39;105455;1278;23522;-61
2022/11/09 10:21:08;;;;;;;;;6.00;6.00;;;;;21.32;59.27;100583.59;105555;1288;20188;-62
2022/11/09 10:23:36;;;;;;;;;4.00;4.00;;;;;21.30;59.29;100582.13;105540;1279;19588;-63
2022/11/09 10:26:03;;;;;;;;;7.00;6.00;;;;;21.28;59.31;100577.46;105623;1294;19641;-61
2022/11/09 10:28:32;;;;;;;;;11.50;8.50;;;;;21.23;59.20;100579.38;105544;1281;22238;-62
2022/11/09 10:30:59;;;;;;;;;14.00;12.00;;;;;21.16;58.48;100580.55;105611;1279;19709;-63
2022/11/09 10:33:27;;;;;;;;;12.00;11.00;;;;;21.14;58.11;100578.13;105595;1302;18567;-62
2022/11/09 10:35:54;;;;;;;;;11.00;9.00;;;;;21.13;57.70;100575.71;105631;1288;18606;-62
2022/11/09 10:38:21;;;;;;;;;8.50;8.00;;;;;21.15;57.86;100580.94;105581;1281;21929;-63
2022/11/09 10:40:49;;;;;;;;;8.00;6.00;;;;;21.17;57.80;100586.98;105634;1295;19832;-63
2022/11/09 10:43:16;;;;;;;;;8.00;8.00;;;;;21.22;57.84;100591.31;105681;1281;18543;-64
2022/11/09 10:45:43;;;;;;;;;8.50;8.00;;;;;21.23;57.86;100587.21;105667;1279;19310;-64
2022/11/09 10:48:10;;;;;;;;;6.00;6.00;;;;;21.22;57.67;100592.14;105615;1294;18337;-64
2022/11/09 10:50:38;;;;;;;;;12.00;11.00;;;;;21.21;57.79;100586.69;105655;1287;18533;-65
2022/11/09 10:53:05;;;;;;;;;8.00;7.00;;;;;21.20;57.65;100584.98;105648;1290;20458;-64
2022/11/09 10:55:35;;;;;;;;;9.00;8.00;;;;;21.19;57.41;100585.52;105656;1297;20058;-63
2022/11/09 10:58:03;;;;;;;;;6.00;6.00;;;;;21.18;57.20;100581.64;105593;1300;18522;-64
2022/11/09 11:00:31;;;;;;;;;5.00;5.00;;;;;21.18;57.26;100579.39;105576;1286;19176;-64
2022/11/09 11:02:58;;;;;;;;;6.00;5.00;;;;;21.18;57.30;100585.92;105674;1296;19666;-63
2022/11/09 11:05:25;;;;;;;;;6.00;6.00;;;;;21.17;57.34;100582.15;105604;1271;22354;-64
2022/11/09 11:07:53;;;;;;;;;6.00;5.00;;;;;21.19;57.31;100590.17;105587;1295;19433;-64
2022/11/09 11:10:20;;;;;;;;;6.00;5.00;;;;;21.19;57.25;100585.72;105659;1279;19465;-62
2022/11/09 11:12:47;;;;;;;;;71.50;54.50;;;;;21.20;57.51;100582.71;105612;1271;20090;-62
2022/11/09 11:15:15;;;;;;;;;;;;;;;21.20;57.69;100580.33;105589;1279;19255;-62
2022/11/09 11:17:42;;;;;;;;;225.00;154.00;;;;;21.21;57.50;100582.19;105720;1276;20532;-62
2022/11/09 11:20:09;;;;;;;;;196.00;145.00;;;;;21.22;57.84;100587.86;105643;1279;18674;-62
2022/11/09 11:22:38;;;;;;;;;113.00;92.00;;;;;21.25;57.85;100594.05;105701;1297;19289;-61